Time;durP1;ratioP1;P1;durP2;ratioP2;P2;SDS_P1;SDS_P2;PMS_P1;PMS_P2;Temp;Humidity;BMP_temperature;BMP_pressure;BME280_temperature;BME280_humidity;BME280_pressure;Samples;Min_cycle;Max_cycle;Signal;HPM_P1;HPM_P2
2024/04/13 00:00:28;;;;;;;11.32;6.22;;;;;;;15.04;100.00;101914.00;6546714;21;20000;-86
2024/04/13 00:02:56;;;;;;;8.18;6.07;;;;;;;15.01;100.00;101908.75;6547909;21;20003;-84
2024/04/13 00:05:36;;;;;;;8.52;6.57;;;;;;;14.99;100.00;101910.50;6593748;21;20007;-87
2024/04/13 00:08:04;;;;;;;6.82;5.95;;;;;;;14.96;100.00;101907.91;6639018;21;20004;-85
2024/04/13 00:10:30;;;;;;;8.18;6.18;;;;;;;14.95;100.00;101908.78;6590241;21;19992;-86
2024/04/13 00:12:58;;;;;;;6.63;5.93;;;;;;;14.95;100.00;101907.00;6544914;21;19999;-87
2024/04/13 00:15:24;;;;;;;9.95;6.55;;;;;;;14.93;100.00;101903.53;6546292;21;20004;-87
2024/04/13 00:17:52;;;;;;;10.32;6.13;;;;;;;14.91;100.00;101905.28;6589331;21;20011;-86
2024/04/13 00:20:17;;;;;;;13.65;7.10;;;;;;;14.91;100.00;101905.28;6589492;21;20064;-88
2024/04/13 00:22:47;;;;;;;6.25;5.65;;;;;;;14.95;100.00;101903.50;6546136;21;20004;-85
2024/04/13 00:25:13;;;;;;;7.13;5.82;;;;;;;14.95;100.00;101906.16;6546255;21;20000;-87
2024/04/13 00:27:42;;;;;;;9.43;6.70;;;;;;;14.91;100.00;101900.03;6543912;21;20010;-87
2024/04/13 00:30:09;;;;;;;9.50;5.93;;;;;;;14.91;100.00;101897.38;6547735;21;20013;-88
2024/04/13 00:32:38;;;;;;;7.53;5.50;;;;;;;14.88;100.00;101897.41;6549485;21;20289;-85
2024/04/13 00:35:05;;;;;;;10.18;6.35;;;;;;;14.84;100.00;101893.91;6593339;21;20000;-87
2024/04/13 00:37:34;;;;;;;10.82;6.13;;;;;;;14.85;100.00;101894.81;6590961;21;19996;-87
2024/04/13 00:39:59;;;;;;;8.90;6.07;;;;;;;14.83;100.00;101893.94;6545785;21;20077;-86
2024/04/13 00:42:28;;;;;;;7.90;4.97;;;;;;;14.82;100.00;101893.06;6544833;21;19999;-88
2024/04/13 00:45:03;;;;;;;7.43;6.05;;;;;;;14.76;100.00;101892.22;6589875;21;20011;-87
2024/04/13 00:47:34;;;;;;;8.20;6.47;;;;;;;14.69;100.00;101897.53;6548952;21;20674;-86
2024/04/13 00:50:10;;;;;;;6.97;5.78;;;;;;;14.68;100.00;101892.28;6546997;21;20047;-85
2024/04/13 00:52:41;;;;;;;5.68;5.07;;;;;;;14.64;100.00;101882.63;6590590;21;20004;-85
2024/04/13 00:55:08;;;;;;;6.88;4.97;;;;;;;14.60;100.00;101879.13;6589367;21;19996;-88
2024/04/13 00:57:39;;;;;;;7.15;5.03;;;;;;;14.58;100.00;101870.34;6588610;21;20014;-86
2024/04/13 01:00:05;;;;;;;10.13;5.65;;;;;;;14.69;100.00;101870.28;6549105;21;19996;-86
2024/04/13 01:02:34;;;;;;;10.93;6.00;;;;;;;14.72;100.00;101868.53;6590776;21;20077;-86
2024/04/13 01:05:00;;;;;;;7.30;5.38;;;;;;;14.76;100.00;101873.75;6590710;21;19995;-86
2024/04/13 01:07:28;;;;;;;12.18;6.20;;;;;;;14.75;100.00;101872.91;6545999;21;20006;-85
2024/04/13 01:10:01;;;;;;;10.57;6.07;;;;;;;14.74;100.00;101868.50;6590868;21;20028;-85
2024/04/13 01:12:31;;;;;;;8.43;5.20;;;;;;;14.74;100.00;101871.13;6548707;21;20004;-85
2024/04/13 01:14:57;;;;;;;8.05;5.65;;;;;;;14.75;100.00;101874.66;6589311;21;20618;-86
2024/04/13 01:17:28;;;;;;;9.15;5.43;;;;;;;14.71;100.00;101873.81;6590743;21;19995;-86
2024/04/13 01:19:53;;;;;;;7.47;6.18;;;;;;;14.65;100.00;101866.81;6547069;21;20015;-84
2024/04/13 01:22:22;;;;;;;10.80;6.15;;;;;;;14.66;100.00;101860.66;6589411;21;19999;-85
2024/04/13 01:24:49;;;;;;;9.05;6.88;;;;;;;14.58;100.00;101864.22;6547193;21;20015;-87
2024/04/13 01:27:18;;;;;;;9.10;6.10;;;;;;;14.53;100.00;101861.59;6590713;21;20019;-86
2024/04/13 01:29:44;;;;;;;8.32;5.13;;;;;;;14.48;100.00;101856.31;6593042;21;20010;-85
2024/04/13 01:32:13;;;;;;;14.10;7.03;;;;;;;14.41;100.00;101857.25;6591559;21;19999;-87
2024/04/13 01:34:38;;;;;;;8.75;6.07;;;;;;;14.39;100.00;101859.03;6550206;21;20003;-86
2024/04/13 01:37:08;;;;;;;10.13;6.63;;;;;;;14.37;100.00;101852.91;6590461;21;20010;-86
2024/04/13 01:39:35;;;;;;;8.88;6.53;;;;;;;14.45;100.00;101856.34;6593305;21;19991;-87
2024/04/13 01:42:03;;;;;;;8.15;7.25;;;;;;;14.46;100.00;101847.56;6590938;21;20014;-87
2024/04/13 01:44:29;;;;;;;13.32;6.95;;;;;;;14.47;100.00;101849.34;6591276;21;20014;-85
2024/04/13 01:47:00;;;;;;;8.27;6.72;;;;;;;14.42;100.00;101847.59;6547731;21;20003;-86
2024/04/13 01:49:26;;;;;;;8.82;7.15;;;;;;;14.37;100.00;101840.59;6591704;21;20000;-87
2024/04/13 01:51:54;;;;;;;9.60;7.53;;;;;;;14.34;100.00;101838.00;6591186;21;20371;-87
2024/04/13 01:54:20;;;;;;;9.88;6.25;;;;;;;14.31;100.00;101834.50;6547292;21;19996;-87
2024/04/13 01:56:48;;;;;;;10.52;7.47;;;;;;;14.32;100.00;101834.47;6591404;21;20239;-87
2024/04/13 01:59:14;;;;;;;10.95;7.65;;;;;;;14.29;100.00;101833.59;6547153;21;20007;-85
2024/04/13 02:01:42;;;;;;;10.07;7.88;;;;;;;14.29;100.00;101828.34;6547391;21;20419;-86
2024/04/13 02:04:08;;;;;;;12.45;7.85;;;;;;;14.25;100.00;101834.50;6546290;21;20238;-86
2024/04/13 02:06:36;;;;;;;14.82;7.85;;;;;;;14.23;100.00;101831.91;6547850;21;20003;-87
2024/04/13 02:09:02;;;;;;;10.50;7.07;;;;;;;14.22;100.00;101830.13;6591308;21;20265;-88
2024/04/13 02:11:31;;;;;;;12.27;8.57;;;;;;;14.20;100.00;101826.66;6591824;21;20056;-87
2024/04/13 02:13:56;;;;;;;11.40;9.32;;;;;;;14.19;100.00;101827.53;6548877;21;20008;-87
2024/04/13 02:16:25;;;;;;;11.85;8.45;;;;;;;14.16;100.00;101825.78;6590503;21;20403;-85
2024/04/13 02:18:52;;;;;;;10.55;8.98;;;;;;;14.09;100.00;101829.31;6549268;21;20010;-87
2024/04/13 02:21:20;;;;;;;13.90;8.68;;;;;;;14.09;100.00;101829.31;6590350;21;20820;-87
2024/04/13 02:23:46;;;;;;;11.10;8.57;;;;;;;14.11;100.00;101835.47;6548582;21;20000;-88
2024/04/13 02:26:14;;;;;;;15.18;9.43;;;;;;;14.12;100.00;101834.59;6589970;21;20010;-86
2024/04/13 02:28:40;;;;;;;11.73;8.95;;;;;;;14.17;100.00;101840.72;6548297;21;19999;-86
2024/04/13 02:31:09;;;;;;;11.77;8.85;;;;;;;14.09;100.00;101831.94;6548840;21;20014;-88
2024/04/13 02:33:34;;;;;;;14.73;9.52;;;;;;;14.05;100.00;101833.75;6549799;21;20073;-87
2024/04/13 02:36:05;;;;;;;12.63;8.90;;;;;;;14.10;100.00;101820.53;6547409;21;20011;-85
2024/04/13 02:38:32;;;;;;;11.45;9.13;;;;;;;14.13;100.00;101824.91;6549451;21;20007;-88
2024/04/13 02:41:03;;;;;;;11.85;9.10;;;;;;;14.16;100.00;101820.53;6591620;21;20000;-86
2024/04/13 02:43:31;;;;;;;16.00;9.60;;;;;;;14.18;100.00;101823.16;6549134;21;20000;-88
2024/04/13 02:46:12;;;;;;;12.63;9.27;;;;;;;14.13;100.00;101831.09;6547011;21;20015;-87
2024/04/13 02:48:39;;;;;;;13.75;8.05;;;;;;;14.15;100.00;101817.91;6592482;21;19996;-87
2024/04/13 02:51:08;;;;;;;13.98;9.55;;;;;;;14.12;100.00;101821.44;6548004;21;19999;-87
2024/04/13 02:53:35;;;;;;;10.85;8.40;;;;;;;14.09;100.00;101816.16;6549236;21;20069;-87
2024/04/13 02:56:06;;;;;;;15.10;8.15;;;;;;;14.09;100.00;101810.88;6550154;21;20035;-85
2024/04/13 02:58:32;;;;;;;11.40;8.10;;;;;;;14.09;100.00;101810.88;6551940;21;19999;-87
2024/04/13 03:01:02;;;;;;;9.25;7.30;;;;;;;14.09;100.00;101802.13;6546972;21;20019;-87
2024/04/13 03:03:28;;;;;;;11.77;7.10;;;;;;;14.09;100.00;101789.81;6547323;21;20004;-87
2024/04/13 03:06:13;;;;;;;8.77;6.38;;;;;;;14.13;100.00;101795.97;6547558;21;20004;-86
2024/04/13 03:08:41;;;;;;;9.30;6.40;;;;;;;14.17;100.00;101797.69;6592300;21;20002;-86
2024/04/13 03:11:11;;;;;;;10.43;6.18;;;;;;;14.22;100.00;101793.28;6548495;21;20023;-86
2024/04/13 03:13:38;;;;;;;7.65;5.20;;;;;;;14.24;100.00;101794.16;6590625;21;20015;-86
2024/04/13 03:16:12;;;;;;;7.13;4.68;;;;;;;14.30;100.00;101787.97;6547340;21;20436;-87
2024/04/13 03:18:41;;;;;;;6.63;4.97;;;;;;;14.32;100.00;101786.19;6549614;21;20068;-88
2024/04/13 03:21:10;;;;;;;7.10;5.70;;;;;;;14.32;100.00;101791.47;6546724;21;20089;-87
2024/04/13 03:23:39;;;;;;;8.82;4.90;;;;;;;14.32;100.00;101789.69;6545994;21;20956;-87
2024/04/13 03:26:08;;;;;;;9.40;5.35;;;;;;;14.28;100.00;101784.47;6546850;21;20482;-87
2024/04/13 03:28:34;;;;;;;10.77;5.13;;;;;;;14.17;100.00;101789.78;6549569;21;19996;-86
2024/04/13 03:31:03;;;;;;;9.48;5.80;;;;;;;14.14;100.00;101788.03;6548328;21;20007;-86
2024/04/13 03:33:29;;;;;;;9.45;5.40;;;;;;;14.16;100.00;101794.19;6590843;21;20000;-87
2024/04/13 03:36:03;;;;;;;7.55;5.63;;;;;;;14.12;100.00;101800.38;6546193;21;20015;-86
2024/04/13 03:38:32;;;;;;;11.27;6.00;;;;;;;14.10;100.00;101794.22;6590558;21;20000;-88
2024/04/13 03:41:08;;;;;;;12.60;6.97;;;;;;;14.01;100.00;101799.53;6591590;21;20000;-86
2024/04/13 03:43:36;;;;;;;6.75;5.18;;;;;;;14.02;100.00;101788.13;6548016;21;19999;-86
2024/04/13 03:46:09;;;;;;;9.55;6.25;;;;;;;14.00;100.00;101789.88;6591133;21;20000;-86
2024/04/13 03:48:38;;;;;;;8.20;6.45;;;;;;;14.05;100.00;101789.00;6548577;21;20111;-83
2024/04/13 03:51:06;;;;;;;10.13;7.05;;;;;;;14.03;100.00;101793.38;6547422;21;20004;-87
2024/04/13 03:53:34;;;;;;;10.40;6.70;;;;;;;14.04;100.00;101794.25;6591246;21;20011;-86
2024/04/13 03:56:02;;;;;;;8.07;6.45;;;;;;;13.99;100.00;101793.41;6590566;21;20115;-86
2024/04/13 03:58:29;;;;;;;11.10;6.10;;;;;;;13.98;100.00;101795.16;6591982;21;20000;-86
2024/04/13 04:01:01;;;;;;;11.05;6.43;;;;;;;13.97;100.00;101793.41;6549516;21;20012;-87
2024/04/13 04:03:30;;;;;;;7.70;6.15;;;;;;;13.95;100.00;101789.91;6592088;21;20006;-88
2024/04/13 04:05:58;;;;;;;9.23;7.65;;;;;;;13.98;100.00;101800.41;6590729;21;20004;-86
2024/04/13 04:08:23;;;;;;;12.95;7.72;;;;;;;14.02;100.00;101794.25;6591507;21;20104;-87
2024/04/13 04:10:52;;;;;;;10.85;6.85;;;;;;;14.05;100.00;101796.88;6548227;21;20058;-86
2024/04/13 04:13:17;;;;;;;12.23;6.68;;;;;;;14.04;100.00;101791.59;6591383;21;19999;-86
2024/04/13 04:15:46;;;;;;;9.65;5.80;;;;;;;14.04;100.00;101799.50;6591213;21;19996;-87
2024/04/13 04:18:11;;;;;;;10.65;6.03;;;;;;;14.04;100.00;101795.13;6546530;21;20412;-85
2024/04/13 04:20:42;;;;;;;9.05;5.63;;;;;;;14.04;100.00;101795.13;6589732;21;19999;-87
2024/04/13 04:23:08;;;;;;;10.00;5.60;;;;;;;14.07;100.00;101803.00;6591356;21;20300;-86
2024/04/13 04:25:36;;;;;;;9.02;6.55;;;;;;;14.09;100.00;101797.72;6590976;21;20003;-87
2024/04/13 04:28:02;;;;;;;10.63;5.47;;;;;;;14.12;100.00;101796.84;6592583;21;20077;-86
2024/04/13 04:30:30;;;;;;;6.20;5.47;;;;;;;14.15;100.00;101808.22;6590646;21;20012;-86
2024/04/13 04:32:57;;;;;;;12.20;5.72;;;;;;;14.20;100.00;101800.31;6546800;21;20313;-86
2024/04/13 04:35:26;;;;;;;11.25;5.90;;;;;;;14.23;100.00;101797.66;6550503;21;20379;-87
2024/04/13 04:37:51;;;;;;;7.25;6.13;;;;;;;14.30;100.00;101804.66;6552908;21;20000;-87
2024/04/13 04:40:20;;;;;;;6.18;5.57;;;;;;;14.32;100.00;101808.13;6552434;21;20015;-86
2024/04/13 04:42:46;;;;;;;8.27;5.60;;;;;;;14.38;100.00;101816.00;6553150;21;20007;-85
2024/04/13 04:45:14;;;;;;;10.48;5.18;;;;;;;14.42;100.00;101814.25;6550988;21;19999;-86
2024/04/13 04:47:40;;;;;;;15.23;8.02;;;;;;;14.47;100.00;101814.19;6592742;21;19999;-85
2024/04/13 04:50:08;;;;;;;8.93;5.25;;;;;;;14.47;100.00;101817.72;6593168;21;20325;-86
2024/04/13 04:52:34;;;;;;;7.35;5.47;;;;;;;14.52;100.00;101820.31;6591969;21;19996;-86
2024/04/13 04:55:04;;;;;;;7.82;5.45;;;;;;;14.51;100.00;101827.34;6594015;21;20013;-86
2024/04/13 04:57:30;;;;;;;7.07;5.68;;;;;;;14.49;100.00;101825.59;6549974;21;20420;-86
2024/04/13 04:59:58;;;;;;;6.82;5.25;;;;;;;14.52;100.00;101830.84;6548905;21;19996;-86
2024/04/13 05:02:24;;;;;;;7.63;4.95;;;;;;;14.50;100.00;101822.09;6549780;21;20000;-86
2024/04/13 05:04:57;;;;;;;5.55;5.00;;;;;;;14.50;100.00;101824.72;6551251;21;19992;-86
2024/04/13 05:07:22;;;;;;;10.80;5.70;;;;;;;14.52;100.00;101822.94;6553048;21;20573;-86
2024/04/13 05:09:55;;;;;;;7.10;5.55;;;;;;;14.55;100.00;101825.56;6549797;21;20234;-87
2024/04/13 05:12:21;;;;;;;7.88;4.60;;;;;;;14.53;100.00;101819.44;6591317;21;20098;-86
2024/04/13 05:14:51;;;;;;;10.38;5.57;;;;;;;14.51;100.00;101822.06;6594103;21;20442;-87
2024/04/13 05:17:17;;;;;;;6.95;5.38;;;;;;;14.55;100.00;101831.72;6547691;21;20011;-87
2024/04/13 05:19:45;;;;;;;10.70;6.25;;;;;;;14.59;100.00;101823.78;6592237;21;20046;-87
2024/04/13 05:22:11;;;;;;;7.65;5.10;;;;;;;14.63;100.00;101823.75;6548904;21;20745;-85
2024/04/13 05:24:39;;;;;;;12.52;5.93;;;;;;;14.68;100.00;101819.34;6548033;21;20541;-86
2024/04/13 05:27:14;;;;;;;6.82;5.45;;;;;;;14.69;100.00;101834.28;6593471;21;20010;-85
2024/04/13 05:29:50;;;;;;;6.65;5.25;;;;;;;14.81;100.00;101830.69;6549177;21;20031;-87
2024/04/13 05:32:15;;;;;;;5.03;4.20;;;;;;;14.82;100.00;101823.63;6598071;21;19999;-87
2024/04/13 05:34:47;;;;;;;5.70;4.82;;;;;;;14.88;100.00;101813.91;6552626;21;20004;-89
2024/04/13 05:37:12;;;;;;;10.32;6.22;;;;;;;14.88;100.00;101815.69;6595249;21;19996;-89
2024/04/13 05:39:40;;;;;;;7.65;4.78;;;;;;;14.93;100.00;101824.44;6598560;21;20000;-86
2024/04/13 05:42:06;;;;;;;6.45;4.80;;;;;;;14.99;100.00;101826.13;6596446;21;20012;-85
2024/04/13 05:44:37;;;;;;;5.88;4.50;;;;;;;15.06;100.00;101827.84;6551073;21;20412;-88
2024/04/13 05:47:03;;;;;;;7.65;4.38;;;;;;;15.13;100.00;101818.13;6594485;21;19995;-88
2024/04/13 05:49:32;;;;;;;6.82;4.60;;;;;;;15.18;100.00;101821.59;6593468;21;20364;-86
2024/04/13 05:51:57;;;;;;;6.05;4.00;;;;;;;15.22;100.00;101824.16;6548955;21;19995;-89
2024/04/13 05:54:25;;;;;;;7.07;4.60;;;;;;;15.27;100.00;101820.63;6548858;21;20003;-87
2024/04/13 05:56:54;;;;;;;7.07;4.55;;;;;;;15.31;100.00;101812.66;6551493;21;20023;-85
2024/04/13 05:59:22;;;;;;;6.07;4.15;;;;;;;15.37;100.00;101817.88;6549743;21;20029;-84
2024/04/13 06:01:48;;;;;;;10.18;4.75;;;;;;;15.42;100.00;101827.50;6596284;21;19999;-87
2024/04/13 06:04:16;;;;;;;8.18;4.32;;;;;;;15.46;100.00;101830.09;6593450;21;20014;-85
2024/04/13 06:06:42;;;;;;;7.95;3.92;;;;;;;15.54;100.00;101833.53;6549950;21;20018;-86
2024/04/13 06:09:13;;;;;;;5.75;3.83;;;;;;;15.64;100.00;101826.38;6549066;21;20004;-87
2024/04/13 06:11:38;;;;;;;5.78;4.22;;;;;;;15.71;99.43;101835.13;6595011;21;20094;-88
2024/04/13 06:14:10;;;;;;;5.72;4.03;;;;;;;15.79;99.42;101827.97;6552142;21;20008;-86
2024/04/13 06:16:35;;;;;;;6.90;4.80;;;;;;;15.83;98.48;101829.72;6595897;21;20038;-85
2024/04/13 06:19:05;;;;;;;6.57;3.92;;;;;;;15.87;97.87;101825.28;6550974;21;20000;-87
2024/04/13 06:21:34;;;;;;;7.95;3.65;;;;;;;15.93;97.67;101832.22;6598839;21;20011;-87
2024/04/13 06:24:03;;;;;;;3.58;3.28;;;;;;;16.04;96.62;101822.41;6599810;21;19999;-87
2024/04/13 06:26:29;;;;;;;6.72;4.13;;;;;;;16.08;96.68;101817.97;6559139;21;20060;-87
2024/04/13 06:28:57;;;;;;;5.50;3.75;;;;;;;16.19;95.91;101821.31;6509700;21;19995;-88
2024/04/13 06:31:23;;;;;;;10.95;4.90;;;;;;;16.21;95.60;101812.47;6595339;21;20000;-88
2024/04/13 06:33:56;;;;;;;6.22;4.43;;;;;;;16.33;95.24;101818.50;6547763;21;20452;-87
2024/04/13 06:36:25;;;;;;;8.45;4.18;;;;;;;16.33;93.60;101813.22;6555198;21;20304;-89
2024/04/13 06:38:56;;;;;;;7.97;3.97;;;;;;;16.43;92.89;101811.31;6642938;21;19991;-85
2024/04/13 06:41:24;;;;;;;4.85;4.38;;;;;;;16.61;92.14;101811.03;6603033;21;20003;-86
2024/04/13 06:43:57;;;;;;;7.43;3.83;;;;;;;16.99;89.19;101808.69;6600680;21;20014;-84
2024/04/13 06:46:30;;;;;;;5.32;3.72;;;;;;;17.92;82.92;101804.28;6601458;21;19995;-88
2024/04/13 06:48:56;;;;;;;5.38;3.50;;;;;;;18.87;76.04;101803.84;6555537;21;19995;-87
2024/04/13 06:51:25;;;;;;;5.28;3.83;;;;;;;19.50;72.91;101804.88;6510063;21;20011;-86
2024/04/13 06:53:50;;;;;;;6.75;4.28;;;;;;;19.75;70.95;101793.56;6562416;21;20528;-90
2024/04/13 06:56:20;;;;;;;5.50;3.28;;;;;;;20.28;68.95;101795.50;6648660;21;20004;-92
2024/04/13 06:58:47;;;;;;;5.85;4.07;;;;;;;20.05;67.56;101798.91;6603360;21;19984;-90
2024/04/13 07:01:23;;;;;;;8.38;3.47;;;;;;;20.12;67.51;101792.47;6560000;21;20000;-90
2024/04/13 07:03:57;;;;;;;7.03;3.85;;;;;;;20.36;66.57;101792.59;6604200;21;19995;-90
2024/04/13 07:06:30;;;;;;;4.20;3.45;;;;;;;21.03;64.64;101793.09;6560201;21;19999;-87
2024/04/13 07:08:56;;;;;;;5.47;3.25;;;;;;;21.96;61.53;101794.16;6606657;21;20092;-88
2024/04/13 07:11:25;;;;;;;9.07;3.90;;;;;;;21.74;60.58;101791.44;6564998;21;20307;-87
2024/04/13 07:13:53;;;;;;;4.03;3.55;;;;;;;21.77;59.50;101786.03;6608037;21;19999;-90
2024/04/13 07:16:27;;;;;;;6.30;3.92;;;;;;;22.25;58.90;101792.19;6606348;21;20000;-87
2024/04/13 07:18:54;;;;;;;6.50;4.40;;;;;;;22.96;55.56;101794.59;6525111;21;20007;-88
2024/04/13 07:21:31;;;;;;;6.07;3.70;;;;;;;23.41;55.12;101787.34;6568944;21;20019;-90
2024/04/13 07:24:02;;;;;;;7.82;3.10;;;;;;;23.26;54.88;101782.69;6572510;21;20004;-90
2024/04/13 07:26:31;;;;;;;5.00;3.58;;;;;;;22.70;55.66;101782.38;6555582;21;20000;-88
2024/04/13 07:28:57;;;;;;;5.43;4.07;;;;;;;23.01;55.71;101788.19;6514594;21;20011;-88
2024/04/13 07:34:13;;;;;;;7.18;3.92;;;;;;;21.89;56.47;101787.34;6542823;21;20027;-86
2024/04/13 07:36:49;;;;;;;6.43;3.60;;;;;;;22.53;55.03;101783.06;6518502;21;20041;-87
2024/04/13 08:03:52;;;;;;;6.72;3.78;;;;;;;22.99;53.41;101785.59;6625306;21;20036;-86
2024/04/13 08:06:18;;;;;;;6.65;3.53;;;;;;;22.34;54.34;101782.91;6602269;21;20014;-86
2024/04/13 08:08:48;;;;;;;4.95;3.15;;;;;;;22.77;54.03;101778.50;6549288;21;20016;-88
2024/04/13 08:11:13;;;;;;;5.63;2.90;;;;;;;23.11;52.82;101778.84;6552522;21;20027;-86
2024/04/13 08:13:47;;;;;;;6.13;2.83;;;;;;;23.92;51.09;101786.81;6598455;21;20008;-87
2024/04/13 08:16:13;;;;;;;11.85;2.95;;;;;;;24.19;50.39;101781.97;6555865;21;20079;-85
2024/04/13 08:18:42;;;;;;;3.05;2.75;;;;;;;24.88;48.65;101788.38;6555491;21;20011;-87
2024/04/13 08:21:07;;;;;;;3.40;2.67;;;;;;;24.99;48.10;101789.66;6601641;21;20042;-87
2024/04/13 08:23:41;;;;;;;5.00;2.30;;;;;;;24.42;48.22;101778.16;6556060;21;20116;-87
2024/04/13 08:26:23;;;;;;;3.67;2.72;;;;;;;23.19;50.92;101794.56;6602579;21;20060;-89
2024/04/13 08:28:54;;;;;;;4.57;3.25;;;;;;;22.71;53.00;101789.44;6533250;21;20021;-87
2024/04/13 08:31:48;;;;;;;4.90;2.75;;;;;;;22.27;53.43;101790.28;6559238;21;20081;-87
2024/04/13 08:34:18;;;;;;;4.75;2.72;;;;;;;21.93;54.10;101790.78;6591848;21;20011;-88
2024/04/13 08:36:47;;;;;;;4.00;2.60;;;;;;;21.93;55.00;101793.44;6550342;21;20007;-88
2024/04/13 08:39:18;;;;;;;4.70;2.25;;;;;;;22.07;54.92;101791.09;6549130;21;19999;-87
2024/04/13 08:42:03;;;;;;;3.17;2.45;;;;;;;21.39;55.97;101780.28;6548185;21;20000;-87
2024/04/13 08:44:33;;;;;;;3.63;2.42;;;;;;;21.53;55.18;101787.78;6549750;21;19999;-87
2024/04/13 08:47:00;;;;;;;4.07;2.85;;;;;;;21.60;56.62;101794.66;6547210;21;19996;-87
2024/04/13 08:49:39;;;;;;;5.80;2.83;;;;;;;22.11;55.33;101787.38;6591424;21;20010;-87
2024/04/13 08:52:07;;;;;;;4.47;2.83;;;;;;;22.24;54.29;101792.22;6546869;21;20050;-87
2024/04/13 08:54:35;;;;;;;4.78;2.50;;;;;;;22.19;53.27;101772.84;6589221;21;20018;-85
2024/04/13 08:57:05;;;;;;;4.88;2.05;;;;;;;23.29;51.94;101780.72;6591299;21;20016;-87
2024/04/13 08:59:33;;;;;;;2.30;2.10;;;;;;;23.02;51.09;101773.91;6545826;21;20004;-87
2024/04/13 09:02:02;;;;;;;3.97;2.10;;;;;;;23.19;51.02;101781.22;6546924;21;20091;-87
2024/04/13 09:04:32;;;;;;;5.25;2.58;;;;;;;23.15;50.20;101780.47;6590143;21;20345;-85
2024/04/13 09:06:58;;;;;;;4.68;2.53;;;;;;;23.28;49.85;101776.34;6597667;21;20076;-86
2024/04/13 09:09:30;;;;;;;4.35;2.60;;;;;;;23.69;48.50;101775.38;6553660;21;20042;-86
2024/04/13 09:11:57;;;;;;;4.18;1.80;;;;;;;23.74;47.81;101773.38;6599268;21;19999;-87
2024/04/13 09:14:28;;;;;;;3.67;1.95;;;;;;;22.96;49.00;101767.91;6554937;21;20019;-86
2024/04/13 09:16:54;;;;;;;2.15;1.92;;;;;;;22.55;49.33;101767.84;6592212;21;20015;-84
2024/04/13 09:19:23;;;;;;;6.50;2.20;;;;;;;23.09;48.40;101760.22;6595584;21;20004;-85
2024/04/13 09:21:50;;;;;;;8.30;2.50;;;;;;;23.43;47.83;101757.88;6601226;21;20027;-86
2024/04/13 09:24:19;;;;;;;4.97;1.50;;;;;;;24.09;46.64;101765.50;6599912;21;20030;-87
2024/04/13 09:26:45;;;;;;;2.97;1.80;;;;;;;23.97;44.86;101762.56;6551351;21;20004;-85
2024/04/13 09:29:16;;;;;;;2.58;1.48;;;;;;;24.06;44.62;101762.97;6552766;21;20000;-87
2024/04/13 09:31:42;;;;;;;2.20;1.60;;;;;;;23.96;44.42;101767.00;6555401;21;20003;-86
2024/04/13 09:34:20;;;;;;;2.70;1.60;;;;;;;23.92;43.99;101762.75;6549459;21;20024;-88
2024/04/13 09:37:00;;;;;;;2.95;1.50;;;;;;;24.41;43.25;101754.16;6555578;21;20015;-87
2024/04/13 09:39:28;;;;;;;4.88;1.30;;;;;;;23.98;44.03;101764.28;6645215;21;20007;-88
2024/04/13 09:41:57;;;;;;;2.55;1.30;;;;;;;23.78;44.74;101752.72;6560909;21;20007;-89
2024/04/13 09:44:30;;;;;;;2.95;1.30;;;;;;;23.81;44.66;101763.25;6555346;21;19996;-88
2024/04/13 09:46:57;;;;;;;;;;;;;;;22.99;47.21;101752.69;6558164;21;20069;-86
2024/04/13 09:49:26;;;;;;;3.33;1.58;;;;;;;22.75;47.88;101751.00;6594668;21;19924;-87
2024/04/13 09:51:54;;;;;;;4.85;1.80;;;;;;;22.64;48.59;101747.91;6592262;21;19992;-84
2024/04/13 09:54:27;;;;;;;2.47;1.60;;;;;;;22.57;49.75;101751.81;6548135;21;20015;-87
2024/04/13 09:56:53;;;;;;;1.95;1.63;;;;;;;22.51;49.95;101736.03;6552746;21;20058;-87
2024/04/13 09:59:22;;;;;;;2.40;1.48;;;;;;;23.18;48.80;101745.63;6587395;21;20010;-86
2024/04/13 10:01:49;;;;;;;2.08;1.88;;;;;;;22.98;49.02;101738.44;6545710;21;20000;-86
2024/04/13 10:04:17;;;;;;;2.13;1.27;;;;;;;23.14;49.13;101722.69;6547712;21;20447;-86
2024/04/13 10:06:50;;;;;;;5.40;1.25;;;;;;;23.35;49.19;101742.19;6595439;21;20004;-84
2024/04/13 10:09:24;;;;;;;1.80;1.50;;;;;;;24.31;47.68;101734.16;6509386;21;20027;-87
2024/04/13 10:11:52;;;;;;;3.22;1.52;;;;;;;24.73;47.04;101722.22;6551227;21;19996;-86
2024/04/13 10:14:24;;;;;;;4.03;1.40;;;;;;;24.33;48.17;101719.75;6594126;21;20000;-88
2024/04/13 10:16:54;;;;;;;4.57;1.60;;;;;;;24.25;48.39;101719.28;6596347;21;20012;-86
2024/04/13 10:19:25;;;;;;;3.53;1.30;;;;;;;24.56;48.02;101723.06;6546372;21;20050;-85
2024/04/13 10:22:01;;;;;;;4.43;1.98;;;;;;;23.87;49.38;101713.94;6550900;21;19999;-86
2024/04/13 10:24:34;;;;;;;6.10;1.60;;;;;;;23.77;50.37;101706.38;6592911;21;20014;-85
2024/04/13 10:27:10;;;;;;;;;;;;;;;23.76;50.84;101704.63;6602208;21;19996;-86
2024/04/13 10:29:40;;;;;;;3.13;1.42;;;;;;;24.13;50.47;101707.34;6591217;21;20606;-87
2024/04/13 10:32:22;;;;;;;3.05;2.03;;;;;;;23.60;51.75;101700.97;6594001;21;20000;-87
2024/04/13 10:34:58;;;;;;;3.08;2.03;;;;;;;23.72;51.55;101694.19;6557270;21;20030;-87
2024/04/13 10:37:36;;;;;;;4.88;1.92;;;;;;;23.55;52.21;101692.31;6552374;21;20060;-86
2024/04/13 10:40:08;;;;;;;2.28;1.60;;;;;;;24.23;51.28;101695.25;6549800;21;20007;-85
2024/04/13 10:42:38;;;;;;;2.85;1.60;;;;;;;25.21;48.96;101688.44;6647714;21;20060;-86
2024/04/13 10:45:33;;;;;;;3.15;1.75;;;;;;;24.54;50.33;101684.81;6550409;21;20036;-86
2024/04/13 10:47:59;;;;;;;2.50;1.85;;;;;;;24.65;50.45;101679.78;6586669;21;19999;-87
2024/04/13 10:50:29;;;;;;;5.22;2.13;;;;;;;25.10;49.50;101686.34;6550518;21;20083;-87
2024/04/13 10:52:55;;;;;;;4.35;1.88;;;;;;;24.65;50.14;101673.59;6593330;21;20019;-88
2024/04/13 10:55:24;;;;;;;2.65;1.90;;;;;;;24.12;51.59;101681.56;6592832;21;20064;-87
2024/04/13 10:57:50;;;;;;;2.80;1.80;;;;;;;24.36;50.52;101670.56;6550226;21;20351;-88
2024/04/13 11:00:19;;;;;;;2.25;1.52;;;;;;;24.53;50.42;101675.91;6548785;21;19996;-87
2024/04/13 11:02:46;;;;;;;5.13;1.90;;;;;;;23.95;51.95;101679.72;6591580;21;20012;-87
2024/04/13 11:05:19;;;;;;;1.70;1.38;;;;;;;24.05;51.56;101682.81;6551110;21;20006;-88
2024/04/13 11:07:48;;;;;;;1.88;1.35;;;;;;;23.76;51.64;101675.22;6552579;21;20394;-88
2024/04/13 11:10:18;;;;;;;3.72;1.50;;;;;;;23.48;52.65;101666.78;6551642;21;20087;-87
2024/04/13 11:12:44;;;;;;;5.47;1.70;;;;;;;23.96;51.82;101662.72;6594353;21;20003;-87
2024/04/13 11:15:13;;;;;;;1.70;1.60;;;;;;;24.07;51.87;101675.59;6551965;21;19999;-87
2024/04/13 11:17:39;;;;;;;2.22;1.45;;;;;;;23.78;52.19;101656.47;6595952;21;20790;-87
2024/04/13 11:20:10;;;;;;;3.35;1.35;;;;;;;24.04;51.87;101665.91;6546566;21;20014;-88
2024/04/13 11:22:37;;;;;;;1.98;1.77;;;;;;;24.28;51.04;101674.47;6505782;21;20297;-87
2024/04/13 11:25:05;;;;;;;3.13;1.30;;;;;;;24.18;51.06;101661.66;6592336;21;20000;-87
2024/04/13 11:27:31;;;;;;;2.85;1.65;;;;;;;24.20;50.95;101652.63;6548533;21;20008;-89
2024/04/13 11:30:01;;;;;;;1.67;1.23;;;;;;;23.82;51.58;101638.44;6594079;21;20032;-90
2024/04/13 11:32:26;;;;;;;1.77;1.17;;;;;;;23.64;52.03;101646.44;6593031;21;20043;-87
2024/04/13 11:34:58;;;;;;;2.92;1.48;;;;;;;23.78;52.19;101649.28;6548021;21;20011;-88
2024/04/13 11:37:23;;;;;;;5.38;1.40;;;;;;;23.17;53.22;101649.56;6591101;21;20205;-89
2024/04/13 11:39:52;;;;;;;2.53;1.33;;;;;;;23.75;51.85;101633.41;6591961;21;20018;-88
2024/04/13 11:42:17;;;;;;;2.38;1.60;;;;;;;24.58;50.82;101640.88;6547141;21;20123;-90
2024/04/13 11:44:46;;;;;;;1.75;1.60;;;;;;;24.75;50.44;101635.53;6546258;21;20000;-87
2024/04/13 11:47:12;;;;;;;2.83;1.30;;;;;;;25.46;49.29;101630.84;6550184;21;19999;-87
2024/04/13 11:49:41;;;;;;;2.67;1.50;;;;;;;26.40;47.44;101613.81;6593773;21;20043;-87
2024/04/13 11:52:13;;;;;;;2.88;1.67;;;;;;;25.70;47.43;101620.53;6550774;21;20012;-87
2024/04/13 11:54:42;;;;;;;2.30;1.50;;;;;;;25.69;47.55;101604.53;6550488;21;20014;-89